Hector — SVA2387 — position and weather

sailwx.info

Track history (hours):
 
Tides and Currents Weather Stations Pressure Air Temp Water Temp Dewpoint Dewpoint Depression Visibility Wind Speed Wind Dir Waves Ship Positions

Hector

Last reported at 2017-Sep-21 07:00 UTC. Time now 2017-Sep-21 07:13 UTC.
Position N 37°57' E 023°37'.

Length 32 m; draft 5 m.

Type: SAR. MMSI: 240998000.

Date/timePositionNaut miles runAvg speedWind from/ knotsBaromVisibWave heightAir tempDewpointWater temp
2017-Sep-21 07:00N 37°57' E 023°37'0 0.0
2017-Sep-21 06:30N 37°57' E 023°37'0 0.0
2017-Sep-21 06:00N 37°57' E 023°37'0 0.0
2017-Sep-21 05:30N 37°57' E 023°37'0 0.4
2017-Sep-21 05:00N 37°58' E 023°37'1 1.0
2017-Sep-21 04:30N 37°57' E 023°36'0 0.8
2017-Sep-21 04:00N 37°57' E 023°36'0 0.0
2017-Sep-20 11:38N 37°57' E 023°37'0 0.0
2017-Sep-20 11:30N 37°57' E 023°37'0 0.0
2017-Sep-20 11:00N 37°57' E 023°37'2 3.7
2017-Sep-20 10:30N 37°57' E 023°34'1 2.0
2017-Sep-20 10:00N 37°57' E 023°35'1 1.8
2017-Sep-20 09:30N 37°57' E 023°37'0 0.0
2017-Sep-20 09:00N 37°57' E 023°37'0 0.0
2017-Sep-20 08:30N 37°57' E 023°37'0 0.0
2017-Sep-20 08:00N 37°57' E 023°37'0 0.0
2017-Sep-20 07:30N 37°57' E 023°37'0 0.0
2017-Sep-20 07:00N 37°57' E 023°37'0 0.0
2017-Sep-20 06:30N 37°57' E 023°37'0 0.0
2017-Sep-20 06:00N 37°57' E 023°37'0 0.0
2017-Sep-20 05:30N 37°57' E 023°37'0 0.0
2017-Sep-20 05:00N 37°57' E 023°37'0 0.0
2017-Sep-20 04:30N 37°57' E 023°37'0 0.0
2017-Sep-20 04:00N 37°57' E 023°37'0 0.4
2017-Sep-20 03:30N 37°58' E 023°37'0 0.0
2017-Sep-19 10:51N 37°57' E 023°37'0 0.0
2017-Sep-19 10:30N 37°57' E 023°37'0 0.4
2017-Sep-19 10:00N 37°58' E 023°37'1 2.7
2017-Sep-19 09:30N 37°56' E 023°36'1 2.3
2017-Sep-19 09:00N 37°57' E 023°37'0 0.0
2017-Sep-19 08:30N 37°57' E 023°37'0 0.0
2017-Sep-19 08:00N 37°57' E 023°37'0 0.0
2017-Sep-19 07:30N 37°57' E 023°37'0 0.0
2017-Sep-19 07:00N 37°57' E 023°37'0 0.2
2017-Sep-19 06:30N 37°57' E 023°36'1 1.6
2017-Sep-19 06:00N 37°57' E 023°36'0 0.1
2017-Sep-19 05:30N 37°57' E 023°36'0 0.3
2017-Sep-19 05:00N 37°57' E 023°36'0 1.0
2017-Sep-19 04:30N 37°56' E 023°36'1 2.7
2017-Sep-19 04:00N 37°57' E 023°36'0 0.0
2017-Sep-18 11:23N 37°57' E 023°37'0 0.0
2017-Sep-18 11:00N 37°57' E 023°37'0 0.0
2017-Sep-18 06:54N 37°57' E 023°37'0 0.0
2017-Sep-18 06:30N 37°57' E 023°37'0 0.0
2017-Sep-18 06:00N 37°57' E 023°37'0 0.0
2017-Sep-18 05:30N 37°57' E 023°37'0 0.0
2017-Sep-18 05:00N 37°57' E 023°37'0 0.0
2017-Sep-17 10:41N 37°57' E 023°37'1 5.4
2017-Sep-17 10:31N 37°57' E 023°35'510.3
2017-Sep-17 10:00N 38°01' E 023°31'0 0.5
2017-Sep-17 09:30N 38°01' E 023°31'0 0.0
2017-Sep-17 09:01N 38°01' E 023°31'0 0.1
2017-Sep-17 08:30N 38°01' E 023°31'0 0.0
2017-Sep-17 08:01N 38°01' E 023°31'0 0.0
2017-Sep-17 07:31N 38°01' E 023°31'0 0.1
2017-Sep-17 07:00N 38°01' E 023°31'0 0.1
2017-Sep-17 06:31N 38°01' E 023°31'0 0.1
2017-Sep-17 06:00N 38°01' E 023°31'0 0.1
2017-Sep-17 05:30N 38°01' E 023°31'0 0.0
2017-Sep-17 05:00N 38°01' E 023°31'0 0.0
2017-Sep-17 04:30N 38°01' E 023°31'0 0.0
2017-Sep-17 04:00N 38°01' E 023°31'0 0.0
2017-Sep-17 03:30N 38°01' E 023°31'0 0.0
2017-Sep-17 03:00N 38°01' E 023°31'0 0.0
2017-Sep-17 02:30N 38°01' E 023°31'0 0.0
2017-Sep-17 01:57N 38°01' E 023°31'0 0.0
2017-Sep-17 01:30N 38°01' E 023°31'0 0.0
2017-Sep-17 01:01N 38°01' E 023°31'0 0.0
2017-Sep-17 00:31N 38°01' E 023°31'0 0.0
2017-Sep-17 00:00N 38°01' E 023°31'0 0.0
2017-Sep-16 23:30N 38°01' E 023°31'0 0.0
2017-Sep-16 23:00N 38°01' E 023°31'0 0.0
2017-Sep-16 22:30N 38°01' E 023°31'0 0.0
2017-Sep-16 22:00N 38°01' E 023°31'0 0.0
2017-Sep-16 21:30N 38°01' E 023°31'0 0.0
2017-Sep-16 21:00N 38°01' E 023°31'0 0.0
2017-Sep-16 20:30N 38°01' E 023°31'0 0.0
2017-Sep-16 20:00N 38°01' E 023°31'0 0.0
2017-Sep-16 19:31N 38°01' E 023°31'0 0.0
2017-Sep-16 19:01N 38°01' E 023°31'0 0.0
2017-Sep-16 18:30N 38°01' E 023°31'0 0.0
2017-Sep-16 18:00N 38°01' E 023°31'0 0.0
2017-Sep-16 17:30N 38°01' E 023°31'0 0.0
2017-Sep-16 17:00N 38°01' E 023°31'0 0.3
2017-Sep-16 16:30N 38°01' E 023°31'510.4
2017-Sep-16 16:00N 37°57' E 023°35'1 2.3
2017-Sep-16 15:30N 37°57' E 023°37'0 0.0
2017-Sep-16 15:00N 37°57' E 023°37'0 0.0
2017-Sep-16 14:30N 37°57' E 023°37'0 0.0
2017-Sep-16 14:00N 37°57' E 023°37'0 0.0
2017-Sep-16 13:30N 37°57' E 023°37'0 0.0
2017-Sep-16 13:00N 37°57' E 023°37'0 0.0
2017-Sep-16 12:30N 37°57' E 023°37'0 0.0
2017-Sep-16 12:00N 37°57' E 023°37'0 0.0
2017-Sep-16 11:30N 37°57' E 023°37'0 0.0
2017-Sep-16 11:00N 37°57' E 023°37'0 0.0
2017-Sep-16 10:30N 37°57' E 023°37'0 0.0
2017-Sep-16 10:00N 37°57' E 023°37'0 0.0
2017-Sep-16 09:30N 37°57' E 023°37'0 0.7
2017-Sep-16 09:00N 37°57' E 023°36'2 4.5
2017-Sep-16 08:30N 37°58' E 023°33'1 1.8
2017-Sep-16 08:00N 37°58' E 023°34'0 0.4
2017-Sep-16 07:30N 37°57' E 023°35'0 0.2
2017-Sep-16 07:00N 37°57' E 023°35'0 0.0
2017-Sep-16 06:30N 37°57' E 023°35'0 0.0
2017-Sep-16 06:00N 37°57' E 023°35'0 0.0
2017-Sep-16 05:30N 37°57' E 023°35'0 0.0
2017-Sep-16 05:00N 37°57' E 023°35'0 0.0
2017-Sep-16 04:30N 37°57' E 023°35'0 0.0
2017-Sep-16 04:00N 37°57' E 023°35'0 0.0
2017-Sep-16 03:30N 37°57' E 023°35'0 0.0
2017-Sep-16 03:00N 37°57' E 023°35'0 0.0
2017-Sep-16 02:30N 37°57' E 023°35'0 0.0
2017-Sep-16 02:00N 37°57' E 023°35'0 0.0
2017-Sep-16 01:30N 37°57' E 023°35'0 0.0
2017-Sep-16 01:00N 37°57' E 023°35'0 0.0
2017-Sep-16 00:30N 37°57' E 023°35'0 0.0
2017-Sep-16 00:00N 37°57' E 023°35'0 0.0
2017-Sep-15 23:30N 37°57' E 023°35'0 0.0
2017-Sep-15 23:00N 37°57' E 023°35'0 0.0
2017-Sep-15 22:30N 37°57' E 023°35'0 0.0
2017-Sep-15 22:00N 37°57' E 023°35'0 0.0
2017-Sep-15 21:30N 37°57' E 023°35'0 0.0
2017-Sep-15 21:00N 37°57' E 023°35'0 0.0
2017-Sep-15 20:30N 37°57' E 023°35'0 0.0
2017-Sep-15 20:00N 37°57' E 023°35'0 0.0
2017-Sep-15 19:30N 37°57' E 023°35'0 0.0
2017-Sep-15 19:00N 37°57' E 023°35'1 1.9
2017-Sep-15 18:30N 37°57' E 023°36'1 1.1
2017-Sep-15 18:00N 37°57' E 023°36'1 2.0
2017-Sep-15 17:30N 37°57' E 023°35'1 1.2
2017-Sep-15 17:00N 37°57' E 023°34'4 8.7
2017-Sep-15 16:30N 38°02' E 023°36'3 5.2
2017-Sep-15 16:00N 37°60' E 023°33'3 5.6
2017-Sep-15 15:30N 37°57' E 023°35'0 0.0
2017-Sep-15 15:00N 37°57' E 023°35'0 0.0
2017-Sep-15 14:30N 37°57' E 023°35'0 0.0
2017-Sep-15 14:00N 37°57' E 023°35'0 0.0
2017-Sep-15 13:30N 37°57' E 023°35'0 0.0
2017-Sep-15 13:00N 37°57' E 023°35'0 0.0
2017-Sep-15 12:30N 37°57' E 023°35'0 0.0
2017-Sep-15 12:01N 37°57' E 023°35'0 0.0
2017-Sep-15 11:30N 37°57' E 023°35'0 0.0
2017-Sep-15 11:00N 37°57' E 023°35'0 0.0
2017-Sep-15 10:30N 37°57' E 023°35'0 0.0
2017-Sep-15 10:00N 37°57' E 023°35'1 2.0
2017-Sep-15 09:30N 37°57' E 023°34'1 2.8
2017-Sep-15 09:00N 37°57' E 023°35'1 2.1
2017-Sep-15 08:30N 37°57' E 023°37'0 0.0
2017-Sep-15 08:00N 37°57' E 023°37'0 0.0
2017-Sep-15 07:30N 37°57' E 023°37'0 0.0
2017-Sep-15 07:00N 37°57' E 023°37'0 0.0
2017-Sep-15 06:30N 37°57' E 023°37'0 0.0
2017-Sep-15 06:00N 37°57' E 023°37'0 0.0
2017-Sep-15 05:30N 37°57' E 023°37'1 2.0
2017-Sep-15 05:00N 37°56' E 023°36'0 0.9
2017-Sep-15 04:30N 37°56' E 023°36'0 0.6
2017-Sep-15 04:00N 37°56' E 023°36'1 0.0
2017-Sep-13 12:02N 37°57' E 023°37'0 0.0
2017-Sep-13 12:00N 37°57' E 023°37'0 0.3
2017-Sep-13 11:30N 37°57' E 023°36'0 0.2
2017-Sep-13 11:00N 37°57' E 023°37'4 7.3
2017-Sep-13 10:30N 37°60' E 023°33'3 5.1
2017-Sep-13 10:00N 38°02' E 023°32'0 0.0
2017-Sep-13 09:30N 38°02' E 023°32'0 0.0
2017-Sep-13 09:00N 38°02' E 023°32'1 1.9
2017-Sep-13 08:30N 38°02' E 023°34'5 9.9
2017-Sep-13 08:00N 37°57' E 023°34'2 4.7
2017-Sep-13 07:30N 37°57' E 023°37'0 0.0
2017-Sep-13 07:00N 37°57' E 023°37'0 0.0
2017-Sep-13 06:30N 37°57' E 023°37'1 1.0
2017-Sep-13 05:57N 37°57' E 023°36'1 1.2
2017-Sep-13 05:29N 37°57' E 023°35'0 0.1
2017-Sep-13 05:00N 37°57' E 023°35'0 0.1
2017-Sep-13 04:30N 37°57' E 023°35'0 0.8
2017-Sep-13 04:00N 37°57' E 023°36'0 0.3
2017-Sep-13 03:30N 37°57' E 023°36'1 0.0
2017-Sep-12 10:49N 37°57' E 023°37'0 0.0
2017-Sep-12 10:30N 37°57' E 023°37'0 0.0
2017-Sep-12 10:00N 37°57' E 023°37'0 0.0
2017-Sep-12 09:30N 37°57' E 023°37'0 0.0
2017-Sep-12 09:00N 37°57' E 023°37'0 0.0
2017-Sep-12 08:30N 37°57' E 023°37'0 0.0
2017-Sep-12 08:00N 37°57' E 023°37'0 0.0
2017-Sep-12 07:30N 37°57' E 023°37'0 0.0
2017-Sep-12 07:00N 37°57' E 023°37'0 0.0
2017-Sep-12 06:30N 37°57' E 023°37'0 0.6
2017-Sep-12 06:00N 37°57' E 023°36'0 0.1
2017-Sep-12 05:30N 37°57' E 023°36'0 0.8
2017-Sep-12 05:00N 37°57' E 023°36'0 0.8
2017-Sep-12 04:30N 37°57' E 023°35'1 2.7
2017-Sep-12 04:00N 37°56' E 023°35'2 0.1
2017-Sep-11 12:44N 37°57' E 023°37'2 8.6
2017-Sep-11 12:30N 37°57' E 023°34'4 8.0
2017-Sep-11 12:00N 38°01' E 023°35'1 1.3
2017-Sep-11 11:30N 38°02' E 023°34'1 1.9
2017-Sep-11 11:00N 38°02' E 023°35'0 0.3
2017-Sep-11 10:30N 38°02' E 023°36'0 0.3
2017-Sep-11 10:00N 38°01' E 023°36'0 0.0
2017-Sep-11 09:30N 38°01' E 023°35'0 0.0
2017-Sep-11 09:00N 38°01' E 023°35'0 0.0
2017-Sep-11 08:30N 38°01' E 023°35'0 0.0
2017-Sep-11 08:00N 38°01' E 023°35'0 0.0
2017-Sep-11 07:30N 38°01' E 023°35'0 0.0
2017-Sep-11 07:00N 38°01' E 023°36'  
Track history (hours):
 
Tides and Currents Weather Stations Pressure Air Temp Water Temp Dewpoint Dewpoint Depression Visibility Wind Speed Wind Dir Waves Ship Positions

Hector

Last reported at 2017-Sep-21 07:00 UTC. Time now 2017-Sep-21 07:13 UTC.
Position N 37°57' E 023°37'.

Length 32 m; draft 5 m.

Type: SAR. MMSI: 240998000.

Date/timePositionNaut miles runAvg speedWind from/ knotsBaromVisibWave heightAir tempDewpointWater temp
2017-Sep-21 07:00N 37°57' E 023°37'0 0.0
2017-Sep-21 06:30N 37°57' E 023°37'0 0.0
2017-Sep-21 06:00N 37°57' E 023°37'0 0.0
2017-Sep-21 05:30N 37°57' E 023°37'0 0.4
2017-Sep-21 05:00N 37°58' E 023°37'1 1.0
2017-Sep-21 04:30N 37°57' E 023°36'0 0.8
2017-Sep-21 04:00N 37°57' E 023°36'0 0.0
2017-Sep-20 11:38N 37°57' E 023°37'0 0.0
2017-Sep-20 11:30N 37°57' E 023°37'0 0.0
2017-Sep-20 11:00N 37°57' E 023°37'2 3.7
2017-Sep-20 10:30N 37°57' E 023°34'1 2.0
2017-Sep-20 10:00N 37°57' E 023°35'1 1.8
2017-Sep-20 09:30N 37°57' E 023°37'0 0.0
2017-Sep-20 09:00N 37°57' E 023°37'0 0.0
2017-Sep-20 08:30N 37°57' E 023°37'0 0.0
2017-Sep-20 08:00N 37°57' E 023°37'0 0.0
2017-Sep-20 07:30N 37°57' E 023°37'0 0.0
2017-Sep-20 07:00N 37°57' E 023°37'0 0.0
2017-Sep-20 06:30N 37°57' E 023°37'0 0.0
2017-Sep-20 06:00N 37°57' E 023°37'0 0.0
2017-Sep-20 05:30N 37°57' E 023°37'0 0.0
2017-Sep-20 05:00N 37°57' E 023°37'0 0.0
2017-Sep-20 04:30N 37°57' E 023°37'0 0.0
2017-Sep-20 04:00N 37°57' E 023°37'0 0.4
2017-Sep-20 03:30N 37°58' E 023°37'0 0.0
2017-Sep-19 10:51N 37°57' E 023°37'0 0.0
2017-Sep-19 10:30N 37°57' E 023°37'0 0.4
2017-Sep-19 10:00N 37°58' E 023°37'1 2.7
2017-Sep-19 09:30N 37°56' E 023°36'1 2.3
2017-Sep-19 09:00N 37°57' E 023°37'0 0.0
2017-Sep-19 08:30N 37°57' E 023°37'0 0.0
2017-Sep-19 08:00N 37°57' E 023°37'0 0.0
2017-Sep-19 07:30N 37°57' E 023°37'0 0.0
2017-Sep-19 07:00N 37°57' E 023°37'0 0.2
2017-Sep-19 06:30N 37°57' E 023°36'1 1.6
2017-Sep-19 06:00N 37°57' E 023°36'0 0.1
2017-Sep-19 05:30N 37°57' E 023°36'0 0.3
2017-Sep-19 05:00N 37°57' E 023°36'0 1.0
2017-Sep-19 04:30N 37°56' E 023°36'1 2.7
2017-Sep-19 04:00N 37°57' E 023°36'0 0.0
2017-Sep-18 11:23N 37°57' E 023°37'0 0.0
2017-Sep-18 11:00N 37°57' E 023°37'0 0.0
2017-Sep-18 06:54N 37°57' E 023°37'0 0.0
2017-Sep-18 06:30N 37°57' E 023°37'0 0.0
2017-Sep-18 06:00N 37°57' E 023°37'0 0.0
2017-Sep-18 05:30N 37°57' E 023°37'0 0.0
2017-Sep-18 05:00N 37°57' E 023°37'0 0.0
2017-Sep-17 10:41N 37°57' E 023°37'1 5.4
2017-Sep-17 10:31N 37°57' E 023°35'510.3
2017-Sep-17 10:00N 38°01' E 023°31'0 0.5
2017-Sep-17 09:30N 38°01' E 023°31'0 0.0
2017-Sep-17 09:01N 38°01' E 023°31'0 0.1
2017-Sep-17 08:30N 38°01' E 023°31'0 0.0
2017-Sep-17 08:01N 38°01' E 023°31'0 0.0
2017-Sep-17 07:31N 38°01' E 023°31'0 0.1
2017-Sep-17 07:00N 38°01' E 023°31'0 0.1
2017-Sep-17 06:31N 38°01' E 023°31'0 0.1
2017-Sep-17 06:00N 38°01' E 023°31'0 0.1
2017-Sep-17 05:30N 38°01' E 023°31'0 0.0
2017-Sep-17 05:00N 38°01' E 023°31'0 0.0
2017-Sep-17 04:30N 38°01' E 023°31'0 0.0
2017-Sep-17 04:00N 38°01' E 023°31'0 0.0
2017-Sep-17 03:30N 38°01' E 023°31'0 0.0
2017-Sep-17 03:00N 38°01' E 023°31'0 0.0
2017-Sep-17 02:30N 38°01' E 023°31'0 0.0
2017-Sep-17 01:57N 38°01' E 023°31'0 0.0
2017-Sep-17 01:30N 38°01' E 023°31'0 0.0
2017-Sep-17 01:01N 38°01' E 023°31'0 0.0
2017-Sep-17 00:31N 38°01' E 023°31'0 0.0
2017-Sep-17 00:00N 38°01' E 023°31'0 0.0
2017-Sep-16 23:30N 38°01' E 023°31'0 0.0
2017-Sep-16 23:00N 38°01' E 023°31'0 0.0
2017-Sep-16 22:30N 38°01' E 023°31'0 0.0
2017-Sep-16 22:00N 38°01' E 023°31'0 0.0
2017-Sep-16 21:30N 38°01' E 023°31'0 0.0
2017-Sep-16 21:00N 38°01' E 023°31'0 0.0
2017-Sep-16 20:30N 38°01' E 023°31'0 0.0
2017-Sep-16 20:00N 38°01' E 023°31'0 0.0
2017-Sep-16 19:31N 38°01' E 023°31'0 0.0
2017-Sep-16 19:01N 38°01' E 023°31'0 0.0
2017-Sep-16 18:30N 38°01' E 023°31'0 0.0
2017-Sep-16 18:00N 38°01' E 023°31'0 0.0
2017-Sep-16 17:30N 38°01' E 023°31'0 0.0
2017-Sep-16 17:00N 38°01' E 023°31'0 0.3
2017-Sep-16 16:30N 38°01' E 023°31'510.4
2017-Sep-16 16:00N 37°57' E 023°35'1 2.3
2017-Sep-16 15:30N 37°57' E 023°37'0 0.0
2017-Sep-16 15:00N 37°57' E 023°37'0 0.0
2017-Sep-16 14:30N 37°57' E 023°37'0 0.0
2017-Sep-16 14:00N 37°57' E 023°37'0 0.0
2017-Sep-16 13:30N 37°57' E 023°37'0 0.0
2017-Sep-16 13:00N 37°57' E 023°37'0 0.0
2017-Sep-16 12:30N 37°57' E 023°37'0 0.0
2017-Sep-16 12:00N 37°57' E 023°37'0 0.0
2017-Sep-16 11:30N 37°57' E 023°37'0 0.0
2017-Sep-16 11:00N 37°57' E 023°37'0 0.0
2017-Sep-16 10:30N 37°57' E 023°37'0 0.0
2017-Sep-16 10:00N 37°57' E 023°37'0 0.0
2017-Sep-16 09:30N 37°57' E 023°37'0 0.7
2017-Sep-16 09:00N 37°57' E 023°36'2 4.5
2017-Sep-16 08:30N 37°58' E 023°33'1 1.8
2017-Sep-16 08:00N 37°58' E 023°34'0 0.4
2017-Sep-16 07:30N 37°57' E 023°35'0 0.2
2017-Sep-16 07:00N 37°57' E 023°35'0 0.0
2017-Sep-16 06:30N 37°57' E 023°35'0 0.0
2017-Sep-16 06:00N 37°57' E 023°35'0 0.0
2017-Sep-16 05:30N 37°57' E 023°35'0 0.0
2017-Sep-16 05:00N 37°57' E 023°35'0 0.0
2017-Sep-16 04:30N 37°57' E 023°35'0 0.0
2017-Sep-16 04:00N 37°57' E 023°35'0 0.0
2017-Sep-16 03:30N 37°57' E 023°35'0 0.0
2017-Sep-16 03:00N 37°57' E 023°35'0 0.0
2017-Sep-16 02:30N 37°57' E 023°35'0 0.0
2017-Sep-16 02:00N 37°57' E 023°35'0 0.0
2017-Sep-16 01:30N 37°57' E 023°35'0 0.0
2017-Sep-16 01:00N 37°57' E 023°35'0 0.0
2017-Sep-16 00:30N 37°57' E 023°35'0 0.0
2017-Sep-16 00:00N 37°57' E 023°35'0 0.0
2017-Sep-15 23:30N 37°57' E 023°35'0 0.0
2017-Sep-15 23:00N 37°57' E 023°35'0 0.0
2017-Sep-15 22:30N 37°57' E 023°35'0 0.0
2017-Sep-15 22:00N 37°57' E 023°35'0 0.0
2017-Sep-15 21:30N 37°57' E 023°35'0 0.0
2017-Sep-15 21:00N 37°57' E 023°35'0 0.0
2017-Sep-15 20:30N 37°57' E 023°35'0 0.0
2017-Sep-15 20:00N 37°57' E 023°35'0 0.0
2017-Sep-15 19:30N 37°57' E 023°35'0 0.0
2017-Sep-15 19:00N 37°57' E 023°35'1 1.9
2017-Sep-15 18:30N 37°57' E 023°36'1 1.1
2017-Sep-15 18:00N 37°57' E 023°36'1 2.0
2017-Sep-15 17:30N 37°57' E 023°35'1 1.2
2017-Sep-15 17:00N 37°57' E 023°34'4 8.7
2017-Sep-15 16:30N 38°02' E 023°36'3 5.2
2017-Sep-15 16:00N 37°60' E 023°33'3 5.6
2017-Sep-15 15:30N 37°57' E 023°35'0 0.0
2017-Sep-15 15:00N 37°57' E 023°35'0 0.0
2017-Sep-15 14:30N 37°57' E 023°35'0 0.0
2017-Sep-15 14:00N 37°57' E 023°35'0 0.0
2017-Sep-15 13:30N 37°57' E 023°35'0 0.0
2017-Sep-15 13:00N 37°57' E 023°35'0 0.0
2017-Sep-15 12:30N 37°57' E 023°35'0 0.0
2017-Sep-15 12:01N 37°57' E 023°35'0 0.0
2017-Sep-15 11:30N 37°57' E 023°35'0 0.0
2017-Sep-15 11:00N 37°57' E 023°35'0 0.0
2017-Sep-15 10:30N 37°57' E 023°35'0 0.0
2017-Sep-15 10:00N 37°57' E 023°35'1 2.0
2017-Sep-15 09:30N 37°57' E 023°34'1 2.8
2017-Sep-15 09:00N 37°57' E 023°35'1 2.1
2017-Sep-15 08:30N 37°57' E 023°37'0 0.0
2017-Sep-15 08:00N 37°57' E 023°37'0 0.0
2017-Sep-15 07:30N 37°57' E 023°37'0 0.0
2017-Sep-15 07:00N 37°57' E 023°37'0 0.0
2017-Sep-15 06:30N 37°57' E 023°37'0 0.0
2017-Sep-15 06:00N 37°57' E 023°37'0 0.0
2017-Sep-15 05:30N 37°57' E 023°37'1 2.0
2017-Sep-15 05:00N 37°56' E 023°36'0 0.9
2017-Sep-15 04:30N 37°56' E 023°36'0 0.6
2017-Sep-15 04:00N 37°56' E 023°36'1 0.0
2017-Sep-13 12:02N 37°57' E 023°37'0 0.0
2017-Sep-13 12:00N 37°57' E 023°37'0 0.3
2017-Sep-13 11:30N 37°57' E 023°36'0 0.2
2017-Sep-13 11:00N 37°57' E 023°37'4 7.3
2017-Sep-13 10:30N 37°60' E 023°33'3 5.1
2017-Sep-13 10:00N 38°02' E 023°32'0 0.0
2017-Sep-13 09:30N 38°02' E 023°32'0 0.0
2017-Sep-13 09:00N 38°02' E 023°32'1 1.9
2017-Sep-13 08:30N 38°02' E 023°34'5 9.9
2017-Sep-13 08:00N 37°57' E 023°34'2 4.7
2017-Sep-13 07:30N 37°57' E 023°37'0 0.0
2017-Sep-13 07:00N 37°57' E 023°37'0 0.0
2017-Sep-13 06:30N 37°57' E 023°37'1 1.0
2017-Sep-13 05:57N 37°57' E 023°36'1 1.2
2017-Sep-13 05:29N 37°57' E 023°35'0 0.1
2017-Sep-13 05:00N 37°57' E 023°35'0 0.1
2017-Sep-13 04:30N 37°57' E 023°35'0 0.8
2017-Sep-13 04:00N 37°57' E 023°36'0 0.3
2017-Sep-13 03:30N 37°57' E 023°36'1 0.0
2017-Sep-12 10:49N 37°57' E 023°37'0 0.0
2017-Sep-12 10:30N 37°57' E 023°37'0 0.0
2017-Sep-12 10:00N 37°57' E 023°37'0 0.0
2017-Sep-12 09:30N 37°57' E 023°37'0 0.0
2017-Sep-12 09:00N 37°57' E 023°37'0 0.0
2017-Sep-12 08:30N 37°57' E 023°37'0 0.0
2017-Sep-12 08:00N 37°57' E 023°37'0 0.0
2017-Sep-12 07:30N 37°57' E 023°37'0 0.0
2017-Sep-12 07:00N 37°57' E 023°37'0 0.0
2017-Sep-12 06:30N 37°57' E 023°37'0 0.6
2017-Sep-12 06:00N 37°57' E 023°36'0 0.1
2017-Sep-12 05:30N 37°57' E 023°36'0 0.8
2017-Sep-12 05:00N 37°57' E 023°36'0 0.8
2017-Sep-12 04:30N 37°57' E 023°35'1 2.7
2017-Sep-12 04:00N 37°56' E 023°35'2 0.1
2017-Sep-11 12:44N 37°57' E 023°37'2 8.6
2017-Sep-11 12:30N 37°57' E 023°34'4 8.0
2017-Sep-11 12:00N 38°01' E 023°35'1 1.3
2017-Sep-11 11:30N 38°02' E 023°34'1 1.9
2017-Sep-11 11:00N 38°02' E 023°35'0 0.3
2017-Sep-11 10:30N 38°02' E 023°36'0 0.3
2017-Sep-11 10:00N 38°01' E 023°36'0 0.0
2017-Sep-11 09:30N 38°01' E 023°35'0 0.0
2017-Sep-11 09:00N 38°01' E 023°35'0 0.0
2017-Sep-11 08:30N 38°01' E 023°35'0 0.0
2017-Sep-11 08:00N 38°01' E 023°35'0 0.0
2017-Sep-11 07:30N 38°01' E 023°35'0 0.0
2017-Sep-11 07:00N 38°01' E 023°36'  

Dump ship's entire track history